Time;durP1;ratioP1;P1;durP2;ratioP2;P2;SDS_P1;SDS_P2;PMS_P1;PMS_P2;Temp;Humidity;BMP_temperature;BMP_pressure;BME280_temperature;BME280_humidity;BME280_pressure;Samples;Min_cycle;Max_cycle;Signal;HPM_P1;HPM_P2
2023/01/07 00:01:02;;;;;;;4.95;2.05;;;;;;;7.30;100.00;96303.44;4987936;28;20830;-74
2023/01/07 00:03:28;;;;;;;2.35;1.60;;;;;;;7.23;100.00;96298.56;4978922;28;24446;-74
2023/01/07 00:05:58;;;;;;;3.00;2.67;;;;;;;7.22;100.00;96304.59;4979108;28;24444;-74
2023/01/07 00:08:25;;;;;;;3.92;2.80;;;;;;;7.22;100.00;96301.19;4989124;28;20764;-74
2023/01/07 00:10:52;;;;;;;3.45;2.58;;;;;;;7.21;100.00;96302.09;4989402;28;24432;-74
2023/01/07 00:13:19;;;;;;;3.13;2.40;;;;;;;7.23;100.00;96303.72;4978046;28;20827;-74
2023/01/07 00:15:45;;;;;;;3.60;1.98;;;;;;;7.24;100.00;96299.41;4983541;28;24437;-74
2023/01/07 00:18:12;;;;;;;2.90;1.80;;;;;;;7.23;100.00;96295.13;4980633;28;24441;-74
2023/01/07 00:20:38;;;;;;;1.60;1.50;;;;;;;7.28;100.00;96294.06;4980830;28;24465;-74
2023/01/07 00:23:05;;;;;;;2.40;1.33;;;;;;;7.33;100.00;96293.84;5000068;28;24447;-74
2023/01/07 00:25:31;;;;;;;1.40;1.30;;;;;;;7.36;100.00;96291.16;5004384;28;24437;-74
2023/01/07 00:27:59;;;;;;;1.33;1.13;;;;;;;7.35;100.00;96292.06;5000217;28;24440;-74
2023/01/07 00:30:25;;;;;;;2.50;1.38;;;;;;;7.35;100.00;96284.34;5003154;28;20812;-75
2023/01/07 00:33:03;;;;;;;2.20;1.73;;;;;;;7.40;100.00;96284.13;5001186;28;25000;-74
2023/01/07 00:35:30;;;;;;;1.55;1.40;;;;;;;7.36;100.00;96280.00;4998410;28;21328;-74
2023/01/07 00:37:56;;;;;;;1.40;1.20;;;;;;;7.34;100.00;96282.66;5000889;28;24440;-74
2023/01/07 00:40:23;;;;;;;1.77;1.27;;;;;;;7.31;100.00;96272.47;5003551;28;24447;-74
2023/01/07 00:43:00;;;;;;;1.52;1.10;;;;;;;7.30;100.00;96275.94;5000931;28;20783;-74
2023/01/07 00:45:30;;;;;;;1.55;1.20;;;;;;;7.30;100.00;96265.63;4998826;28;21035;-74
2023/01/07 00:47:57;;;;;;;3.28;1.30;;;;;;;7.31;100.00;96275.06;5001324;28;20858;-74
2023/01/07 00:50:26;;;;;;;1.73;1.13;;;;;;;7.33;100.00;96269.84;5003404;28;20824;-74
2023/01/07 00:52:52;;;;;;;1.30;1.10;;;;;;;7.34;100.00;96269.78;5001093;28;20775;-74
2023/01/07 00:55:19;;;;;;;1.80;1.23;;;;;;;7.35;100.00;96258.56;4999257;28;20778;-74
2023/01/07 00:57:46;;;;;;;2.08;1.30;;;;;;;7.32;100.00;96261.25;4999459;28;24440;-74
2023/01/07 01:00:15;;;;;;;1.47;1.30;;;;;;;7.25;100.00;96259.84;4997392;28;24456;-74
2023/01/07 01:02:44;;;;;;;1.77;1.42;;;;;;;7.21;100.00;96256.56;5000071;28;21368;-74
2023/01/07 01:05:11;;;;;;;2.38;2.00;;;;;;;7.21;100.00;96253.16;4997007;28;21141;-74
2023/01/07 01:07:38;;;;;;;2.88;1.65;;;;;;;7.23;100.00;96259.06;4999239;28;20780;-74
2023/01/07 01:10:07;;;;;;;2.88;2.08;;;;;;;7.22;100.00;96257.41;4998001;28;21123;-74
2023/01/07 01:12:34;;;;;;;3.22;2.05;;;;;;;7.24;100.00;96258.19;4998175;28;20786;-74
2023/01/07 01:15:01;;;;;;;2.83;1.98;;;;;;;7.25;100.00;96249.53;5005358;28;20838;-74
2023/01/07 01:17:27;;;;;;;2.40;1.98;;;;;;;7.23;100.00;96254.78;5000459;28;24459;-74
2023/01/07 01:19:55;;;;;;;2.30;1.60;;;;;;;7.26;100.00;96257.19;4998647;28;24468;-74
2023/01/07 01:22:22;;;;;;;3.70;1.20;;;;;;;7.26;100.00;96252.03;4999083;28;24441;-74
2023/01/07 01:24:49;;;;;;;2.92;1.30;;;;;;;7.25;100.00;96252.94;5005239;28;24440;-74
2023/01/07 01:27:15;;;;;;;2.20;1.40;;;;;;;7.29;100.00;96248.50;5002833;28;20782;-74
2023/01/07 01:29:42;;;;;;;1.17;1.07;;;;;;;7.27;100.00;96248.59;5002949;28;24527;-74
2023/01/07 01:32:08;;;;;;;1.60;1.07;;;;;;;7.21;100.00;96251.41;5001197;28;20792;-74
2023/01/07 01:34:35;;;;;;;1.13;0.85;;;;;;;7.20;100.00;96248.91;5001061;28;20787;-74
2023/01/07 01:37:04;;;;;;;1.85;1.30;;;;;;;7.21;100.00;96248.00;5002739;28;20788;-74
2023/01/07 01:39:30;;;;;;;2.95;1.33;;;;;;;7.20;100.00;96243.75;5003018;28;20768;-74
2023/01/07 01:41:57;;;;;;;2.22;1.33;;;;;;;7.16;100.00;96240.47;5000762;28;24464;-74
2023/01/07 01:44:35;;;;;;;2.03;1.17;;;;;;;7.18;100.00;96235.25;5002198;28;24440;-74
2023/01/07 01:47:06;;;;;;;1.20;1.00;;;;;;;7.13;100.00;96239.75;5001276;28;20664;-74
2023/01/07 01:49:38;;;;;;;1.70;1.20;;;;;;;7.14;100.00;96241.41;5001961;28;21317;-74
2023/01/07 01:52:09;;;;;;;2.08;1.50;;;;;;;7.11;100.00;96237.22;5000784;28;20722;-74
2023/01/07 01:54:36;;;;;;;1.95;1.42;;;;;;;7.05;100.00;96234.09;5005453;28;21053;-74
2023/01/07 01:57:06;;;;;;;2.90;2.03;;;;;;;7.09;100.00;96230.50;5002643;28;24444;-74
2023/01/07 01:59:37;;;;;;;2.17;1.30;;;;;;;7.11;100.00;96233.81;5003684;28;20816;-74
2023/01/07 02:02:05;;;;;;;1.70;1.30;;;;;;;7.13;100.00;96239.75;5003936;28;20800;-74
2023/01/07 02:04:33;;;;;;;2.30;1.17;;;;;;;7.14;100.00;96236.28;5001834;28;21314;-74
2023/01/07 02:07:03;;;;;;;2.47;1.67;;;;;;;7.11;100.00;96232.06;4999766;28;20818;-74
2023/01/07 02:09:31;;;;;;;5.13;2.92;;;;;;;7.10;100.00;96235.56;5001930;28;21326;-75
2023/01/07 02:12:10;;;;;;;2.17;1.92;;;;;;;7.08;100.00;96227.03;5000515;28;20818;-74
2023/01/07 02:15:01;;;;;;;3.40;2.50;;;;;;;7.11;100.00;96226.09;4995692;28;20776;-74
2023/01/07 02:17:39;;;;;;;2.50;1.70;;;;;;;7.10;100.00;96217.53;5004300;28;20814;-74
2023/01/07 02:20:27;;;;;;;2.28;1.40;;;;;;;7.10;100.00;96214.13;4998211;28;21310;-75
2023/01/07 02:23:28;;;;;;;1.83;1.42;;;;;;;7.01;100.00;96215.34;5003293;28;20669;-75
2023/01/07 02:26:39;;;;;;;1.65;1.40;;;;;;;6.89;100.00;96203.81;4992016;28;21218;-74
2023/01/07 02:29:53;;;;;;;1.80;1.20;;;;;;;6.86;100.00;96205.66;5002921;28;24796;-74
2023/01/07 02:32:31;;;;;;;8.00;1.40;;;;;;;6.82;100.00;96204.13;4941389;28;25229;-74
2023/01/07 02:35:10;;;;;;;1.20;1.10;;;;;;;6.89;100.00;96198.66;5003714;28;25005;-74
2023/01/07 02:37:47;;;;;;;1.42;1.30;;;;;;;6.93;100.00;96196.78;5002845;28;24447;-74
2023/01/07 02:40:21;;;;;;;1.40;1.23;;;;;;;6.96;100.00;96197.50;5005260;28;20782;-75
2023/01/07 02:42:59;;;;;;;1.40;1.10;;;;;;;6.98;100.00;96198.28;5003045;28;24436;-74
2023/01/07 02:45:29;;;;;;;2.00;1.20;;;;;;;6.98;100.00;96184.56;5000310;28;24436;-74
2023/01/07 02:48:00;;;;;;;2.35;1.20;;;;;;;7.06;100.00;96184.25;5006163;28;24989;-75
2023/01/07 02:50:26;;;;;;;2.03;1.17;;;;;;;7.02;100.00;96170.66;5003837;28;20804;-75
2023/01/07 02:52:53;;;;;;;2.08;1.08;;;;;;;7.07;100.00;96171.28;5005986;28;24448;-74
2023/01/07 02:55:26;;;;;;;1.38;1.10;;;;;;;7.13;100.00;96165.06;5000377;28;24474;-74
2023/01/07 02:58:32;;;;;;;3.00;0.98;;;;;;;7.09;100.00;96160.94;4999539;28;24440;-74
2023/01/07 03:01:12;;;;;;;1.33;0.90;;;;;;;7.11;100.00;96162.53;4989871;28;21398;-74
2023/01/07 03:04:02;;;;;;;1.20;0.87;;;;;;;7.09;100.00;96163.53;4999100;28;24452;-74
2023/01/07 03:06:50;;;;;;;0.90;0.65;;;;;;;6.98;100.00;96153.69;5001241;28;20751;-74
2023/01/07 03:09:25;;;;;;;1.05;0.70;;;;;;;6.97;100.00;96154.56;4998504;28;20752;-74
2023/01/07 03:11:59;;;;;;;1.00;0.80;;;;;;;6.90;100.00;96155.75;5002881;28;20704;-75
2023/01/07 03:14:35;;;;;;;1.45;0.90;;;;;;;6.89;100.00;96146.31;5002876;28;24441;-74
2023/01/07 03:17:06;;;;;;;1.02;0.93;;;;;;;6.90;100.00;96151.44;4999011;28;24444;-74
2023/01/07 03:19:38;;;;;;;1.27;0.80;;;;;;;6.95;100.00;96148.66;4998145;28;25114;-74
2023/01/07 03:22:08;;;;;;;0.80;0.68;;;;;;;6.91;100.00;96144.53;5002736;28;20807;-75
2023/01/07 03:24:35;;;;;;;1.00;0.63;;;;;;;7.07;100.00;96139.56;4994286;28;20723;-74
2023/01/07 03:27:05;;;;;;;1.58;0.70;;;;;;;7.01;100.00;96138.09;4996240;28;24433;-74
2023/01/07 03:29:34;;;;;;;0.77;0.50;;;;;;;6.99;100.00;96133.00;4997973;28;20742;-75
2023/01/07 03:32:07;;;;;;;0.77;0.50;;;;;;;6.94;100.00;96134.09;5002464;28;20822;-75
2023/01/07 03:34:36;;;;;;;0.50;0.50;;;;;;;6.85;100.00;96124.19;4999129;28;20768;-74
2023/01/07 03:37:07;;;;;;;0.68;0.47;;;;;;;6.91;100.00;96134.22;4999289;28;20818;-74
2023/01/07 03:39:36;;;;;;;0.63;0.50;;;;;;;6.88;100.00;96126.63;4996509;28;24436;-74
2023/01/07 03:44:50;;;;;;;0.65;0.60;;;;;;;6.90;100.00;96120.53;5002168;28;20812;-74
2023/01/07 03:47:16;;;;;;;0.90;0.40;;;;;;;7.00;100.00;96120.94;4999975;28;24437;-74
2023/01/07 03:49:44;;;;;;;0.80;0.73;;;;;;;6.91;100.00;96123.94;5001079;28;25002;-73
2023/01/07 03:52:11;;;;;;;0.85;0.70;;;;;;;6.89;100.00;96120.56;5000991;28;24441;-73
2023/01/07 03:54:37;;;;;;;1.58;0.60;;;;;;;6.93;100.00;96111.81;4998570;28;20784;-73
2023/01/07 03:57:04;;;;;;;0.60;0.40;;;;;;;6.95;100.00;96108.28;4999897;28;20788;-73
2023/01/07 03:59:30;;;;;;;0.70;0.70;;;;;;;6.91;100.00;96101.59;4996338;28;20776;-73
2023/01/07 04:01:57;;;;;;;0.95;0.68;;;;;;;6.98;100.00;96100.44;4998698;28;24467;-73
2023/01/07 04:04:23;;;;;;;2.17;1.02;;;;;;;6.97;100.00;96100.47;4999385;28;24448;-73
2023/01/07 04:06:51;;;;;;;2.10;1.40;;;;;;;7.01;100.00;96102.03;4998936;28;24993;-73
2023/01/07 04:09:18;;;;;;;1.90;1.35;;;;;;;7.00;100.00;96102.91;4996278;28;20782;-74
2023/01/07 04:11:45;;;;;;;2.90;1.60;;;;;;;6.97;100.00;96095.31;4997934;28;21252;-73
2023/01/07 04:14:11;;;;;;;1.75;1.45;;;;;;;6.97;100.00;96095.31;5004594;28;20785;-73
2023/01/07 04:16:38;;;;;;;1.30;1.20;;;;;;;6.99;100.00;96098.69;4992980;28;24443;-73
2023/01/07 04:19:04;;;;;;;3.35;1.55;;;;;;;6.96;100.00;96091.91;4997004;28;24439;-73
2023/01/07 04:21:31;;;;;;;1.80;0.90;;;;;;;6.99;100.00;96091.78;5004118;28;24469;-73
2023/01/07 04:23:58;;;;;;;1.02;0.88;;;;;;;7.01;100.00;96092.56;4994523;28;24436;-73
2023/01/07 04:26:25;;;;;;;1.00;0.70;;;;;;;6.86;100.00;96082.94;5006533;28;24447;-73
2023/01/07 04:28:51;;;;;;;0.70;0.70;;;;;;;6.95;100.00;96086.84;4995848;28;24812;-73
2023/01/07 04:31:18;;;;;;;0.75;0.60;;;;;;;6.93;100.00;96071.44;5000547;28;24440;-73
2023/01/07 04:33:44;;;;;;;0.50;0.50;;;;;;;6.91;100.00;96087.88;4997122;28;24439;-73
2023/01/07 04:36:12;;;;;;;0.90;0.60;;;;;;;6.92;100.00;96077.50;5000500;28;24524;-73
2023/01/07 04:38:38;;;;;;;1.17;0.88;;;;;;;7.00;100.00;96064.28;5006730;28;20795;-73
2023/01/07 04:41:06;;;;;;;0.90;0.80;;;;;;;7.22;100.00;96066.75;5001686;28;20794;-73
2023/01/07 04:43:34;;;;;;;1.00;0.80;;;;;;;7.16;100.00;96069.63;4995108;28;20780;-73
2023/01/07 04:46:00;;;;;;;1.00;0.80;;;;;;;6.98;100.00;96066.94;5003318;28;20779;-73
2023/01/07 04:48:27;;;;;;;1.20;0.80;;;;;;;6.91;100.00;96059.56;4995452;28;24794;-73
2023/01/07 04:50:53;;;;;;;1.60;0.90;;;;;;;6.87;100.00;96053.72;5000949;28;24448;-74
2023/01/07 04:53:20;;;;;;;0.60;0.60;;;;;;;6.89;100.00;96059.63;4999175;28;24468;-74
2023/01/07 04:55:46;;;;;;;1.20;0.80;;;;;;;6.87;100.00;96053.72;5004700;28;24496;-74
2023/01/07 04:58:14;;;;;;;1.35;0.80;;;;;;;6.83;100.00;96062.47;4996795;28;20783;-73
2023/01/07 05:00:40;;;;;;;0.93;0.90;;;;;;;6.80;100.00;96052.31;5000842;28;20821;-73
2023/01/07 05:03:07;;;;;;;1.20;0.90;;;;;;;6.93;100.00;96047.44;5009736;28;20782;-73
2023/01/07 05:05:33;;;;;;;2.22;0.95;;;;;;;7.02;100.00;96047.88;4998641;28;24433;-73
2023/01/07 05:08:00;;;;;;;0.90;0.80;;;;;;;6.97;100.00;96043.81;5001842;28;24445;-73
2023/01/07 05:10:26;;;;;;;1.52;0.80;;;;;;;6.95;100.00;96040.50;5001451;28;24436;-74
2023/01/07 05:12:53;;;;;;;0.93;0.80;;;;;;;6.87;100.00;96040.84;5010973;28;24436;-73
2023/01/07 05:15:21;;;;;;;0.80;0.73;;;;;;;7.02;100.00;96040.16;5008671;28;20839;-74
2023/01/07 05:17:47;;;;;;;1.70;0.88;;;;;;;7.04;100.00;96045.22;5002331;28;24433;-73
2023/01/07 05:20:14;;;;;;;0.80;0.80;;;;;;;6.95;100.00;96038.75;5001838;28;24443;-74
2023/01/07 05:22:40;;;;;;;0.80;0.70;;;;;;;6.93;100.00;96037.97;5007241;28;24993;-73
2023/01/07 05:25:07;;;;;;;1.90;1.00;;;;;;;6.93;100.00;96035.41;5010161;28;24433;-73
2023/01/07 05:27:34;;;;;;;1.23;0.98;;;;;;;6.91;100.00;96036.38;5001243;28;20786;-73
2023/01/07 05:30:00;;;;;;;0.90;0.80;;;;;;;6.88;100.00;96037.34;5000783;28;24444;-73
2023/01/07 05:32:28;;;;;;;1.30;1.00;;;;;;;6.93;100.00;96032.81;5006741;28;24460;-73
2023/01/07 05:34:54;;;;;;;1.20;0.90;;;;;;;7.13;100.00;96031.13;5010885;28;24437;-73
2023/01/07 05:37:21;;;;;;;0.90;0.83;;;;;;;7.05;100.00;96028.91;5002443;28;24444;-73
2023/01/07 05:39:47;;;;;;;1.25;0.88;;;;;;;6.99;100.00;96024.00;5000978;28;24437;-73
2023/01/07 05:42:14;;;;;;;1.90;1.35;;;;;;;6.91;100.00;96015.78;5005826;28;24460;-73
2023/01/07 05:44:41;;;;;;;1.10;1.00;;;;;;;6.81;100.00;96017.94;5010643;28;24436;-73
2023/01/07 05:47:07;;;;;;;1.95;1.02;;;;;;;6.93;100.00;96016.53;5009457;28;24448;-73
2023/01/07 05:49:35;;;;;;;1.13;1.00;;;;;;;6.94;100.00;96016.50;5009097;28;24443;-74
2023/01/07 05:52:02;;;;;;;12.43;6.25;;;;;;;6.75;100.00;96006.19;5005219;28;20781;-73
2023/01/07 05:54:28;;;;;;;3.25;1.55;;;;;;;6.82;100.00;96008.47;5010509;28;24437;-74
2023/01/07 05:56:54;;;;;;;1.52;1.27;;;;;;;6.78;100.00;96006.00;5003555;28;24441;-73
2023/01/07 05:59:21;;;;;;;1.98;1.60;;;;;;;6.82;100.00;96004.16;5007991;28;24436;-74
2023/01/07 06:01:48;;;;;;;2.08;1.88;;;;;;;6.72;100.00;96001.16;5003150;28;24810;-73
2023/01/07 06:04:15;;;;;;;2.15;1.95;;;;;;;6.73;100.00;96005.41;5008542;28;24439;-74
2023/01/07 06:06:42;;;;;;;1.80;1.60;;;;;;;6.75;100.00;96000.19;5003833;28;20795;-74
2023/01/07 06:09:10;;;;;;;1.40;1.30;;;;;;;6.86;100.00;96003.13;5001528;28;24447;-73
2023/01/07 06:11:36;;;;;;;1.58;1.30;;;;;;;6.88;100.00;95993.59;5002405;28;24444;-73
2023/01/07 06:14:03;;;;;;;3.00;1.10;;;;;;;6.78;100.00;95992.31;5008091;28;24854;-73
2023/01/07 06:16:29;;;;;;;1.77;1.08;;;;;;;6.67;100.00;95984.22;5002192;28;24463;-74
2023/01/07 06:18:56;;;;;;;2.03;1.45;;;;;;;6.69;100.00;95985.00;5006635;28;24467;-74
2023/01/07 06:21:22;;;;;;;1.70;1.20;;;;;;;6.75;100.00;95990.72;4999635;28;24440;-73
2023/01/07 06:23:50;;;;;;;1.58;1.48;;;;;;;6.65;100.00;95991.19;5006454;28;20786;-74
2023/01/07 06:26:16;;;;;;;1.58;1.33;;;;;;;6.54;100.00;95986.50;5004778;28;20775;-74
2023/01/07 06:28:43;;;;;;;2.75;1.48;;;;;;;6.64;100.00;95992.13;5008980;28;24951;-74
2023/01/07 06:31:09;;;;;;;3.03;1.70;;;;;;;6.60;100.00;95993.13;5009083;28;24849;-74
2023/01/07 06:33:39;;;;;;;2.00;1.70;;;;;;;6.54;100.00;95994.25;5007011;28;25028;-74
2023/01/07 06:36:06;;;;;;;1.23;1.13;;;;;;;6.50;100.00;95990.13;5000344;28;20864;-74
2023/01/07 06:38:33;;;;;;;1.90;1.30;;;;;;;6.49;100.00;95988.47;5008265;28;20858;-74
2023/01/07 06:41:01;;;;;;;0.90;0.90;;;;;;;6.47;100.00;95988.50;5011048;28;24428;-74
2023/01/07 06:43:28;;;;;;;1.20;0.95;;;;;;;6.66;100.00;95985.97;5000796;28;20792;-74
2023/01/07 06:45:55;;;;;;;0.90;0.80;;;;;;;6.51;100.00;95977.19;5004809;28;24880;-74
2023/01/07 06:48:21;;;;;;;1.65;0.90;;;;;;;6.49;100.00;95979.00;5004488;28;24506;-74
2023/01/07 06:50:48;;;;;;;1.80;0.85;;;;;;;6.43;100.00;95975.84;5010271;28;24449;-74
2023/01/07 06:53:14;;;;;;;0.77;0.70;;;;;;;6.47;100.00;95973.06;5002662;28;24440;-74
2023/01/07 06:55:40;;;;;;;0.70;0.60;;;;;;;6.36;100.00;95967.56;5007653;28;24437;-74
2023/01/07 06:58:08;;;;;;;0.80;0.80;;;;;;;6.29;100.00;95961.00;5006883;28;24443;-74
2023/01/07 07:00:35;;;;;;;1.75;0.85;;;;;;;6.24;100.00;95955.22;4999268;28;24432;-74
2023/01/07 07:03:01;;;;;;;0.43;0.40;;;;;;;6.35;100.00;95953.03;5004178;28;24463;-74
2023/01/07 07:05:28;;;;;;;0.50;0.50;;;;;;;6.37;100.00;95958.09;5004025;28;25006;-74
2023/01/07 07:07:54;;;;;;;1.90;1.70;;;;;;;6.30;100.00;95952.38;4999265;28;24444;-74
2023/01/07 07:10:21;;;;;;;6.13;4.70;;;;;;;6.32;100.00;95952.31;5001344;28;24451;-74
2023/01/07 07:12:47;;;;;;;4.93;4.25;;;;;;;6.35;100.00;95957.34;5005595;28;24444;-74
2023/01/07 07:15:15;;;;;;;4.05;2.20;;;;;;;6.28;100.00;95956.78;4999558;28;24447;-74
2023/01/07 07:17:41;;;;;;;1.27;1.10;;;;;;;6.25;100.00;95950.00;5004900;28;25034;-74
2023/01/07 07:20:09;;;;;;;0.82;0.80;;;;;;;6.23;100.00;95949.25;5004316;28;24799;-74
2023/01/07 07:22:36;;;;;;;2.92;2.58;;;;;;;6.21;100.00;95951.03;5001289;28;25022;-74
2023/01/07 07:25:02;;;;;;;2.45;1.80;;;;;;;6.24;100.00;95940.63;5006035;28;24439;-74
2023/01/07 07:27:28;;;;;;;6.43;5.45;;;;;;;6.24;100.00;95937.22;5005207;28;24441;-74
2023/01/07 07:29:55;;;;;;;1.60;1.38;;;;;;;6.29;100.00;95945.56;5009228;28;24958;-74
2023/01/07 07:32:27;;;;;;;1.70;1.33;;;;;;;6.32;100.00;95942.03;4997930;28;24436;-74
2023/01/07 07:34:53;;;;;;;2.38;1.15;;;;;;;6.34;100.00;95937.66;5004092;28;24543;-74
2023/01/07 07:37:20;;;;;;;1.10;0.90;;;;;;;6.41;100.00;95937.31;5000099;28;24791;-69
2023/01/07 07:39:47;;;;;;;3.40;2.90;;;;;;;6.32;100.00;95942.03;4996546;28;24443;-74
2023/01/07 07:42:13;;;;;;;3.07;1.87;;;;;;;6.24;100.00;95934.66;5000870;28;24506;-74
2023/01/07 07:44:39;;;;;;;1.50;1.40;;;;;;;6.24;100.00;95934.66;5003738;28;24455;-74
2023/01/07 07:47:06;;;;;;;3.03;1.95;;;;;;;6.30;100.00;95932.66;5007747;28;20778;-74
2023/01/07 07:49:34;;;;;;;7.32;4.65;;;;;;;6.29;100.00;95930.97;5002445;28;24447;-74
2023/01/07 07:52:00;;;;;;;8.60;4.37;;;;;;;6.27;100.00;95930.22;5003781;28;24807;-74
2023/01/07 07:54:27;;;;;;;9.68;5.68;;;;;;;6.33;100.00;95930.84;5009256;28;24770;-74
2023/01/07 07:56:54;;;;;;;9.85;5.15;;;;;;;6.40;100.00;95933.06;5002092;28;24846;-73
2023/01/07 07:59:21;;;;;;;4.30;2.33;;;;;;;6.33;100.00;95923.13;4997278;28;24795;-74
2023/01/07 08:01:48;;;;;;;1.95;1.42;;;;;;;6.29;100.00;95920.69;5003267;28;24440;-73
2023/01/07 08:04:14;;;;;;;1.55;1.30;;;;;;;6.30;100.00;95917.22;4998966;28;24528;-74
2023/01/07 08:06:42;;;;;;;3.45;2.45;;;;;;;6.24;100.00;95921.78;4997984;28;24440;-74
2023/01/07 08:09:09;;;;;;;2.50;1.60;;;;;;;6.23;100.00;95920.09;5001982;28;24437;-74
2023/01/07 08:11:35;;;;;;;1.20;1.00;;;;;;;6.31;100.00;95923.19;4998266;28;25005;-74
2023/01/07 08:14:01;;;;;;;2.13;1.30;;;;;;;6.26;100.00;95919.97;4998686;28;24780;-74
2023/01/07 08:16:28;;;;;;;1.10;1.00;;;;;;;6.29;100.00;95928.41;4998660;28;24445;-74
2023/01/07 08:18:54;;;;;;;1.27;0.88;;;;;;;6.35;100.00;95917.03;4998392;28;24452;-74
2023/01/07 08:21:21;;;;;;;2.00;1.50;;;;;;;6.49;100.00;95912.09;5002928;28;24435;-74
2023/01/07 08:23:49;;;;;;;2.00;1.80;;;;;;;6.35;100.00;95911.88;5001940;28;24444;-74
2023/01/07 08:26:15;;;;;;;1.60;1.50;;;;;;;6.34;100.00;95899.94;5005501;28;24435;-73
2023/01/07 08:28:42;;;;;;;1.70;1.20;;;;;;;6.30;100.00;95898.34;5003612;28;24796;-74
2023/01/07 08:31:08;;;;;;;1.60;1.10;;;;;;;6.33;100.00;95895.66;4999261;28;24515;-74
2023/01/07 08:33:38;;;;;;;2.85;1.52;;;;;;;6.29;100.00;95904.41;5007308;28;25003;-74
2023/01/07 08:36:07;;;;;;;1.58;1.48;;;;;;;6.23;100.00;95902.09;5001066;28;24545;-74
2023/01/07 08:38:33;;;;;;;3.15;1.92;;;;;;;6.25;100.00;95901.13;4996811;28;24440;-74
2023/01/07 08:41:02;;;;;;;1.92;1.45;;;;;;;6.27;100.00;95901.09;4998889;28;20781;-73
2023/01/07 08:43:29;;;;;;;2.28;2.03;;;;;;;6.25;100.00;95898.56;4999136;28;24469;-74
2023/01/07 08:45:55;;;;;;;2.50;1.92;;;;;;;6.26;100.00;95891.69;4997935;28;24433;-74
2023/01/07 08:48:22;;;;;;;2.20;1.90;;;;;;;6.29;100.00;95894.13;4999628;28;24985;-74
2023/01/07 08:50:51;;;;;;;2.30;2.10;;;;;;;6.31;100.00;95889.75;5003325;28;24455;-74
2023/01/07 08:53:17;;;;;;;3.17;1.70;;;;;;;6.34;100.00;95889.63;5008545;28;24435;-73
2023/01/07 08:55:44;;;;;;;3.13;2.08;;;;;;;6.33;100.00;95893.09;5008803;28;24439;-74
2023/01/07 08:58:12;;;;;;;7.15;2.67;;;;;;;6.37;100.00;95893.78;4995753;28;24517;-74
2023/01/07 09:00:38;;;;;;;3.30;2.30;;;;;;;6.32;100.00;95906.84;4996819;28;24432;-74
2023/01/07 09:03:05;;;;;;;6.32;2.42;;;;;;;6.32;100.00;95903.47;4997697;28;24465;-74
2023/01/07 09:05:31;;;;;;;2.45;2.22;;;;;;;6.39;100.00;95902.28;5005643;28;24439;-74
2023/01/07 09:07:58;;;;;;;3.15;2.67;;;;;;;6.40;100.00;95896.22;5008118;28;24994;-74
2023/01/07 09:10:25;;;;;;;2.90;2.33;;;;;;;6.36;100.00;95898.09;4996059;28;24452;-74
2023/01/07 09:12:51;;;;;;;3.65;2.05;;;;;;;6.42;100.00;95900.41;5003464;28;24444;-74
2023/01/07 09:15:19;;;;;;;2.45;1.95;;;;;;;6.39;100.00;95897.13;4999321;28;24440;-74
2023/01/07 09:17:46;;;;;;;2.17;1.98;;;;;;;6.51;100.00;95894.00;4995117;28;24445;-74
2023/01/07 09:20:12;;;;;;;2.13;1.92;;;;;;;6.54;100.00;95888.72;5000408;28;24796;-74
2023/01/07 09:22:39;;;;;;;3.00;1.88;;;;;;;6.61;100.00;95882.41;4994071;28;24460;-74
2023/01/07 09:25:06;;;;;;;2.67;1.70;;;;;;;6.75;100.00;95876.66;5007161;28;24989;-74
2023/01/07 09:27:33;;;;;;;1.70;1.60;;;;;;;6.90;100.00;95872.53;5001150;28;24437;-74
2023/01/07 09:29:59;;;;;;;1.90;1.50;;;;;;;7.31;100.00;95875.72;4995417;28;24437;-74
2023/01/07 09:32:28;;;;;;;3.72;2.17;;;;;;;7.60;100.00;95870.84;5002329;28;24439;-74
2023/01/07 09:34:55;;;;;;;2.55;1.92;;;;;;;7.95;100.00;95869.09;5000674;28;24438;-74
2023/01/07 09:37:22;;;;;;;3.00;2.47;;;;;;;8.07;100.00;95867.63;5005428;28;24435;-72
2023/01/07 09:39:49;;;;;;;2.42;2.22;;;;;;;7.94;100.00;95870.84;4996266;28;21155;-74
2023/01/07 09:42:25;;;;;;;3.13;2.00;;;;;;;8.04;100.00;95862.63;5004663;28;20820;-74
2023/01/07 09:45:04;;;;;;;3.45;2.13;;;;;;;8.13;100.00;95864.75;5009166;28;20661;-74
2023/01/07 09:47:35;;;;;;;2.65;2.35;;;;;;;8.10;100.00;95870.06;5010710;28;21018;-73
2023/01/07 09:50:09;;;;;;;3.08;2.25;;;;;;;7.99;100.00;95861.13;5004204;28;21466;-74
2023/01/07 09:52:41;;;;;;;2.35;2.15;;;;;;;7.89;100.00;95865.06;5002383;28;21080;-74
2023/01/07 09:55:14;;;;;;;2.85;2.45;;;;;;;7.75;100.00;95855.47;5009059;28;20791;-74
2023/01/07 09:57:40;;;;;;;2.15;1.90;;;;;;;7.63;100.00;95856.06;4999269;28;20729;-74
2023/01/07 10:00:15;;;;;;;2.75;2.45;;;;;;;7.75;100.00;95855.47;5007335;28;24994;-74
2023/01/07 10:02:51;;;;;;;4.78;2.22;;;;;;;7.88;100.00;95854.84;5000295;28;24468;-74
2023/01/07 10:05:31;;;;;;;3.58;2.20;;;;;;;7.66;100.00;95855.09;5000763;28;21515;-74
2023/01/07 10:08:06;;;;;;;2.67;2.47;;;;;;;7.84;100.00;95850.78;5000690;28;25017;-74
2023/01/07 10:10:43;;;;;;;3.50;2.40;;;;;;;8.00;100.00;95847.31;5008841;28;20661;-74
2023/01/07 10:13:25;;;;;;;2.55;2.00;;;;;;;8.11;100.00;95845.94;5009167;28;20756;-75
2023/01/07 10:16:01;;;;;;;2.60;2.20;;;;;;;8.47;100.00;95835.47;5003106;28;20649;-75
2023/01/07 10:18:44;;;;;;;2.53;2.33;;;;;;;8.51;100.00;95833.56;5001525;28;20696;-74
2023/01/07 10:21:16;;;;;;;3.65;2.53;;;;;;;8.76;100.00;95817.56;5008104;28;20745;-74
2023/01/07 10:23:46;;;;;;;3.20;2.65;;;;;;;8.87;100.00;95828.16;5008789;28;20681;-74
2023/01/07 10:26:21;;;;;;;2.78;2.40;;;;;;;8.64;100.00;95830.25;5008153;28;24440;-74
2023/01/07 10:28:53;;;;;;;3.25;2.78;;;;;;;8.33;100.00;95831.00;5006501;28;21127;-74
2023/01/07 10:31:23;;;;;;;3.90;2.45;;;;;;;8.80;100.00;95827.66;5003198;28;20816;-74
2023/01/07 10:33:52;;;;;;;2.85;2.50;;;;;;;8.99;100.00;95811.13;5010887;28;24440;-75
2023/01/07 10:36:22;;;;;;;3.00;2.30;;;;;;;9.38;100.00;95801.13;5008732;28;20773;-75
2023/01/07 10:38:58;;;;;;;3.30;2.45;;;;;;;9.53;100.00;95801.13;5008555;28;20683;-74
2023/01/07 10:41:33;;;;;;;3.03;2.47;;;;;;;9.56;100.00;95803.56;5006405;28;21066;-75
2023/01/07 10:44:24;;;;;;;2.27;2.00;;;;;;;9.50;100.00;95799.59;5007400;28;20851;-75
2023/01/07 10:47:03;;;;;;;5.75;2.05;;;;;;;9.66;100.00;95790.00;5004646;28;20701;-75
2023/01/07 10:49:43;;;;;;;2.60;2.05;;;;;;;9.59;100.00;95783.53;5005353;28;20664;-75
2023/01/07 10:52:27;;;;;;;2.25;2.05;;;;;;;9.68;100.00;95782.16;5000884;28;21039;-76
2023/01/07 10:55:15;;;;;;;2.30;2.10;;;;;;;9.86;100.00;95775.03;5002050;28;20780;-75
2023/01/07 10:57:42;;;;;;;5.93;2.30;;;;;;;10.02;100.00;95764.63;5003258;28;24636;-75
2023/01/07 11:00:13;;;;;;;2.83;1.75;;;;;;;9.84;100.00;95761.38;5008737;28;24436;-75
2023/01/07 11:02:44;;;;;;;1.87;1.70;;;;;;;9.81;100.00;95751.22;5001489;28;21334;-75
2023/01/07 11:05:12;;;;;;;3.42;2.30;;;;;;;9.90;100.00;95755.81;4999003;28;20780;-75
2023/01/07 11:07:43;;;;;;;3.00;2.40;;;;;;;10.08;98.38;95741.78;4998164;28;24840;-75
2023/01/07 11:10:15;;;;;;;3.92;2.60;;;;;;;9.79;100.00;95742.72;5005565;28;25292;-74
2023/01/07 11:12:47;;;;;;;3.05;2.25;;;;;;;9.57;100.00;95738.84;5002907;28;24448;-75
2023/01/07 11:15:19;;;;;;;2.38;2.10;;;;;;;9.54;100.00;95741.59;4999117;28;24448;-75
2023/01/07 11:17:49;;;;;;;3.37;2.37;;;;;;;9.50;100.00;95739.28;4995023;28;24448;-74
2023/01/07 11:20:41;;;;;;;2.70;2.17;;;;;;;9.53;100.00;95729.59;4999061;28;24441;-75
2023/01/07 11:23:18;;;;;;;2.63;2.20;;;;;;;9.37;100.00;95727.06;5005717;28;20790;-75
2023/01/07 11:25:46;;;;;;;4.20;2.50;;;;;;;9.68;100.00;95731.28;5004774;28;24795;-75
2023/01/07 11:28:18;;;;;;;6.18;2.47;;;;;;;9.49;100.00;95728.09;4999661;28;21185;-75
2023/01/07 11:30:44;;;;;;;2.40;2.00;;;;;;;9.49;100.00;95714.34;5002622;28;24432;-75
2023/01/07 11:33:22;;;;;;;3.55;2.40;;;;;;;9.67;100.00;95713.25;5004870;28;24989;-75
2023/01/07 11:35:54;;;;;;;2.95;2.65;;;;;;;9.52;100.00;95702.06;4998499;28;24448;-75
2023/01/07 11:38:28;;;;;;;3.70;2.33;;;;;;;9.34;100.00;95695.41;4999709;28;24509;-75
2023/01/07 11:40:56;;;;;;;2.85;2.50;;;;;;;9.51;100.00;95697.00;4998682;28;20821;-75
2023/01/07 11:43:24;;;;;;;3.80;2.75;;;;;;;9.60;100.00;95699.03;5000443;28;24471;-75
2023/01/07 11:45:53;;;;;;;3.35;3.05;;;;;;;9.57;100.00;95694.88;4997661;28;24963;-75
2023/01/07 11:48:26;;;;;;;3.17;2.88;;;;;;;9.35;100.00;95685.00;4998197;28;24440;-75